Time;durP1;ratioP1;P1;durP2;ratioP2;P2;SDS_P1;SDS_P2;PMS_P1;PMS_P2;Temp;Humidity;BMP_temperature;BMP_pressure;BME280_temperature;BME280_humidity;BME280_pressure;Samples;Min_cycle;Max_cycle;Signal;HPM_P1;HPM_P2
2024/04/02 00:01:05;;;;;;;4.95;2.83;;;;;;;13.29;69.16;100216.28;5073278;28;20028;-45
2024/04/02 00:03:30;;;;;;;3.92;2.75;;;;;;;13.25;69.28;100220.66;5072160;28;20498;-44
2024/04/02 00:05:56;;;;;;;4.47;2.70;;;;;;;13.38;68.62;100214.47;5072442;28;20041;-48
2024/04/02 00:08:21;;;;;;;5.95;2.83;;;;;;;13.30;69.27;100223.25;5072562;28;20025;-46
2024/04/02 00:10:47;;;;;;;3.72;2.67;;;;;;;13.45;68.43;100219.63;5072471;28;20041;-46
2024/04/02 00:13:12;;;;;;;4.70;2.80;;;;;;;13.39;68.71;100217.94;5072160;28;20123;-46
2024/04/02 00:15:37;;;;;;;6.78;3.15;;;;;;;13.20;69.58;100222.47;5072605;28;20058;-45
2024/04/02 00:18:03;;;;;;;5.85;2.75;;;;;;;13.28;69.45;100214.56;5073179;28;20036;-48
2024/04/02 00:20:29;;;;;;;6.68;3.10;;;;;;;13.34;68.79;100211.88;5073491;28;20036;-46
2024/04/02 00:22:54;;;;;;;6.03;3.08;;;;;;;13.29;68.92;100214.56;5072765;28;20097;-48
2024/04/02 00:25:20;;;;;;;6.63;3.08;;;;;;;13.25;69.35;100210.19;5072042;28;20078;-46
2024/04/02 00:27:45;;;;;;;5.65;3.28;;;;;;;13.26;68.86;100221.53;5073658;28;20036;-46
2024/04/02 00:30:13;;;;;;;6.00;3.05;;;;;;;13.05;69.95;100229.53;5071799;28;20028;-49
2024/04/02 00:32:38;;;;;;;6.85;3.22;;;;;;;13.04;69.84;100223.44;5072206;28;20040;-45
2024/04/02 00:35:04;;;;;;;7.63;3.10;;;;;;;13.17;69.50;100229.47;5071511;28;20101;-46
2024/04/02 00:37:29;;;;;;;4.82;3.08;;;;;;;13.09;69.27;100237.34;5071665;28;20086;-48
2024/04/02 00:39:59;;;;;;;7.40;3.03;;;;;;;13.19;69.06;100233.81;5072173;28;20068;-46
2024/04/02 00:42:25;;;;;;;5.07;3.03;;;;;;;13.17;68.87;100232.97;5071878;28;20092;-46
2024/04/02 00:44:50;;;;;;;6.10;3.28;;;;;;;12.96;70.23;100235.69;5071959;28;20132;-46
2024/04/02 00:47:15;;;;;;;5.45;2.95;;;;;;;12.98;69.92;100237.44;5072096;28;20040;-49
2024/04/02 00:49:41;;;;;;;5.97;3.28;;;;;;;13.01;70.02;100240.00;5072646;28;20043;-45
2024/04/02 00:52:07;;;;;;;5.25;3.13;;;;;;;12.97;70.30;100233.06;5071474;28;20048;-44
2024/04/02 00:54:33;;;;;;;4.70;2.80;;;;;;;12.66;71.04;100234.13;5071801;28;20032;-45
2024/04/02 00:56:58;;;;;;;5.57;3.30;;;;;;;12.86;71.05;100234.88;5071879;28;20044;-47
2024/04/02 00:59:24;;;;;;;6.78;3.20;;;;;;;12.85;70.83;100240.13;5072494;28;20036;-46
2024/04/02 01:01:50;;;;;;;5.38;3.10;;;;;;;12.83;70.99;100241.88;5072208;28;20040;-48
2024/04/02 01:04:17;;;;;;;8.48;3.13;;;;;;;12.95;70.19;100242.66;5072360;28;20511;-48
2024/04/02 01:06:42;;;;;;;5.07;2.88;;;;;;;12.95;69.85;100237.44;5071725;28;20033;-50
2024/04/02 01:09:08;;;;;;;6.40;2.92;;;;;;;12.77;70.86;100244.50;5071467;28;20040;-46
2024/04/02 01:11:35;;;;;;;4.90;2.90;;;;;;;12.83;70.88;100239.25;5072181;28;20396;-45
2024/04/02 01:14:00;;;;;;;5.30;2.85;;;;;;;12.90;70.00;100246.19;5072890;28;20048;-48
2024/04/02 01:16:26;;;;;;;8.93;3.13;;;;;;;12.91;70.54;100247.94;5071951;28;20037;-45
2024/04/02 01:18:51;;;;;;;6.18;2.85;;;;;;;12.96;69.99;100256.63;5071758;28;20120;-46
2024/04/02 01:21:19;;;;;;;6.25;2.97;;;;;;;12.88;70.14;100250.53;5072147;28;20063;-46
2024/04/02 01:23:45;;;;;;;5.40;3.17;;;;;;;12.90;69.62;100259.28;5071765;28;20036;-48
2024/04/02 01:26:10;;;;;;;5.63;2.92;;;;;;;12.80;70.26;100254.97;5070658;28;20043;-44
2024/04/02 01:28:36;;;;;;;5.55;2.90;;;;;;;12.90;69.88;100239.22;5070906;28;20036;-46
2024/04/02 01:31:02;;;;;;;6.05;3.10;;;;;;;12.92;69.53;100252.28;5070677;28;20514;-48
2024/04/02 01:33:28;;;;;;;7.35;3.00;;;;;;;12.81;70.12;100244.47;5070720;28;20521;-47
2024/04/02 01:35:53;;;;;;;6.93;3.30;;;;;;;12.75;70.35;100254.09;5071006;28;20572;-49
2024/04/02 01:38:19;;;;;;;7.68;3.10;;;;;;;12.51;71.36;100252.47;5070604;28;20056;-46
2024/04/02 01:40:44;;;;;;;5.60;3.22;;;;;;;12.71;70.57;100252.41;5071418;28;20552;-46
2024/04/02 01:43:09;;;;;;;3.80;2.70;;;;;;;12.52;71.07;100249.88;5070233;28;20040;-51
2024/04/02 01:45:35;;;;;;;5.40;2.90;;;;;;;12.41;71.39;100258.63;5070387;28;20064;-46
2024/04/02 01:48:02;;;;;;;5.10;3.00;;;;;;;12.47;72.06;100259.47;5070904;28;20029;-46
2024/04/02 01:50:28;;;;;;;5.22;2.70;;;;;;;12.58;70.72;100262.91;5070291;28;20561;-49
2024/04/02 01:52:53;;;;;;;4.75;2.88;;;;;;;12.68;70.76;100265.50;5071252;28;20036;-47
2024/04/02 01:55:18;;;;;;;4.28;2.70;;;;;;;12.77;69.88;100260.22;5071554;28;20037;-46
2024/04/02 01:57:43;;;;;;;7.15;2.85;;;;;;;12.56;70.67;100256.81;5071964;28;20044;-44
2024/04/02 02:00:09;;;;;;;5.97;2.90;;;;;;;12.55;70.93;100268.19;5071591;28;20044;-45
2024/04/02 02:02:35;;;;;;;5.63;2.60;;;;;;;12.23;71.57;100266.53;5070999;28;20040;-46
2024/04/02 02:05:01;;;;;;;6.57;2.88;;;;;;;12.53;71.32;100266.44;5070564;28;20142;-47
2024/04/02 02:07:26;;;;;;;5.22;2.50;;;;;;;12.43;71.80;100263.00;5070265;28;20064;-45
2024/04/02 02:09:51;;;;;;;4.93;2.42;;;;;;;12.70;70.08;100259.38;5070782;28;20090;-44
2024/04/02 02:12:17;;;;;;;9.23;2.60;;;;;;;12.62;70.13;100260.31;5069840;28;20040;-52
2024/04/02 02:14:42;;;;;;;4.70;2.60;;;;;;;12.69;69.89;100264.59;5070421;28;20036;-44
2024/04/02 02:17:07;;;;;;;5.82;2.72;;;;;;;12.64;70.35;100267.25;5069639;28;20040;-48
2024/04/02 02:19:33;;;;;;;3.97;2.42;;;;;;;12.54;70.29;100276.03;5070524;28;20063;-50
2024/04/02 02:21:58;;;;;;;5.15;2.72;;;;;;;12.62;70.28;100282.09;5070342;28;20039;-46
2024/04/02 02:24:23;;;;;;;5.78;2.80;;;;;;;12.44;71.80;100266.47;5070135;28;20032;-46
2024/04/02 02:26:52;;;;;;;5.00;2.90;;;;;;;12.50;71.08;100272.53;5070640;28;20080;-46
2024/04/02 02:29:22;;;;;;;3.95;2.53;;;;;;;12.63;70.57;100273.34;5070008;28;20491;-46
2024/04/02 02:31:48;;;;;;;6.43;2.80;;;;;;;12.58;70.96;100270.75;5070770;28;20044;-49
2024/04/02 02:34:13;;;;;;;5.35;2.70;;;;;;;12.52;71.71;100273.41;5070187;28;20055;-44
2024/04/02 02:36:38;;;;;;;6.60;3.10;;;;;;;12.39;72.55;100278.69;5070027;28;20029;-48
2024/04/02 02:39:04;;;;;;;5.82;2.63;;;;;;;12.56;71.47;100279.50;5069702;28;20041;-43
2024/04/02 02:41:29;;;;;;;4.82;2.80;;;;;;;12.40;72.03;100273.44;5069769;28;20063;-46
2024/04/02 02:43:56;;;;;;;7.00;3.15;;;;;;;12.49;71.54;100276.03;5069855;28;20040;-47
2024/04/02 02:46:21;;;;;;;5.32;3.10;;;;;;;12.50;71.74;100276.91;5069096;28;20045;-46
2024/04/02 02:48:47;;;;;;;5.00;2.88;;;;;;;12.60;71.09;100276.00;5069942;28;20090;-48
2024/04/02 02:51:12;;;;;;;6.93;2.90;;;;;;;12.57;71.07;100287.31;5069835;28;20040;-46
2024/04/02 02:53:37;;;;;;;6.60;2.90;;;;;;;12.56;71.13;100287.34;5070030;28;20044;-46
2024/04/02 02:56:03;;;;;;;6.15;3.00;;;;;;;12.50;71.46;100290.81;5069981;28;20407;-49
2024/04/02 02:58:29;;;;;;;5.68;3.00;;;;;;;12.55;71.00;100291.72;5061764;28;20056;-45
2024/04/02 03:00:54;;;;;;;6.28;3.13;;;;;;;12.54;70.87;100291.72;5068789;28;20036;-44
2024/04/02 03:03:20;;;;;;;5.80;3.25;;;;;;;12.50;71.08;100296.06;5069274;28;20032;-47
2024/04/02 03:05:55;;;;;;;5.07;3.05;;;;;;;12.43;71.79;100296.09;5069754;28;20029;-49
2024/04/02 03:08:21;;;;;;;5.38;2.80;;;;;;;12.46;71.66;100299.56;5069548;28;20410;-49
2024/04/02 03:10:55;;;;;;;6.05;3.30;;;;;;;12.45;71.39;100305.66;5070134;28;20402;-46
2024/04/02 03:13:20;;;;;;;6.53;2.78;;;;;;;12.45;71.66;100305.66;5069284;28;20495;-45
2024/04/02 03:15:45;;;;;;;7.35;3.22;;;;;;;12.41;71.54;100306.56;5070189;28;20044;-49
2024/04/02 03:18:11;;;;;;;6.53;3.15;;;;;;;12.38;71.63;100313.56;5069558;28;20040;-45
2024/04/02 03:20:39;;;;;;;8.18;3.30;;;;;;;12.33;72.46;100304.84;5069708;28;20032;-44
2024/04/02 03:23:05;;;;;;;6.18;3.60;;;;;;;12.32;73.25;100306.56;5069155;28;20036;-47
2024/04/02 03:25:30;;;;;;;7.60;3.63;;;;;;;12.33;73.11;100313.56;5069926;28;20571;-49
2024/04/02 03:27:55;;;;;;;7.63;3.85;;;;;;;12.09;74.32;100316.22;5069468;28;20040;-46
2024/04/02 03:30:21;;;;;;;6.82;3.90;;;;;;;12.41;72.93;100306.56;5068633;28;20036;-44
2024/04/02 03:32:46;;;;;;;6.15;3.50;;;;;;;12.44;72.31;100322.22;5069301;28;20044;-48
2024/04/02 03:35:11;;;;;;;9.32;3.83;;;;;;;12.24;73.64;100321.44;5068968;28;20040;-45
2024/04/02 03:37:37;;;;;;;6.85;3.65;;;;;;;12.21;73.21;100324.03;5069880;28;20043;-45
2024/04/02 03:40:02;;;;;;;7.32;3.67;;;;;;;12.35;73.21;100324.00;5070464;28;20066;-45
2024/04/02 03:42:27;;;;;;;7.32;3.58;;;;;;;12.36;73.36;100326.63;5070069;28;20063;-46
2024/04/02 03:44:53;;;;;;;7.85;3.75;;;;;;;12.19;73.79;100328.41;5070086;28;20045;-45
2024/04/02 03:47:19;;;;;;;10.15;3.72;;;;;;;12.31;74.01;100330.13;5068722;28;20169;-45
2024/04/02 03:49:45;;;;;;;9.07;3.53;;;;;;;12.21;74.10;100329.25;5069339;28;20078;-46
2024/04/02 03:52:10;;;;;;;8.30;3.65;;;;;;;12.10;74.80;100337.13;5068717;28;20037;-45
2024/04/02 03:54:35;;;;;;;7.47;3.80;;;;;;;11.99;74.95;100340.63;5072817;28;20380;-45
2024/04/02 03:57:01;;;;;;;7.63;3.35;;;;;;;12.45;73.81;100346.63;5073332;28;20578;-46
2024/04/02 03:59:26;;;;;;;6.72;3.10;;;;;;;12.47;73.44;100343.16;5072430;28;20036;-47
2024/04/02 04:01:51;;;;;;;9.43;3.20;;;;;;;12.51;72.78;100344.00;5073273;28;20043;-48
2024/04/02 04:04:17;;;;;;;7.07;3.40;;;;;;;12.41;72.74;100348.38;5073833;28;20043;-45
2024/04/02 04:06:42;;;;;;;9.55;3.80;;;;;;;12.41;73.09;100342.28;5074271;28;20029;-45
2024/04/02 04:09:08;;;;;;;6.53;3.70;;;;;;;12.41;72.93;100356.22;5072673;28;20176;-46
2024/04/02 04:11:33;;;;;;;6.28;3.30;;;;;;;12.54;73.07;100357.94;5073120;28;20044;-46
2024/04/02 04:14:01;;;;;;;7.32;3.53;;;;;;;12.56;73.99;100363.19;5072536;28;20505;-44
2024/04/02 04:16:27;;;;;;;6.05;3.60;;;;;;;12.54;73.36;100363.19;5072338;28;20050;-47
2024/04/02 04:18:52;;;;;;;7.68;3.50;;;;;;;12.72;73.41;100362.25;5072677;28;20032;-47
2024/04/02 04:21:17;;;;;;;8.00;3.60;;;;;;;12.84;73.05;100361.31;5072439;28;20514;-44
2024/04/02 04:23:43;;;;;;;6.82;3.22;;;;;;;12.97;72.36;100365.63;5074137;28;20039;-47
2024/04/02 04:26:08;;;;;;;7.18;3.08;;;;;;;12.85;72.30;100366.56;5073790;28;20387;-45
2024/04/02 04:28:33;;;;;;;5.85;3.08;;;;;;;12.92;72.28;100364.78;5073241;28;20059;-48
2024/04/02 04:31:00;;;;;;;6.30;3.30;;;;;;;12.90;72.07;100363.91;5072020;28;20406;-46
2024/04/02 04:33:27;;;;;;;7.18;3.10;;;;;;;12.88;72.21;100371.75;5071359;28;20044;-47
2024/04/02 04:35:53;;;;;;;8.13;3.33;;;;;;;12.77;72.61;100370.06;5072058;28;20132;-46
2024/04/02 04:38:19;;;;;;;7.15;3.13;;;;;;;12.84;72.45;100372.66;5071528;28;20035;-45
2024/04/02 04:40:45;;;;;;;5.90;3.05;;;;;;;12.99;71.79;100369.97;5070778;28;20060;-47
2024/04/02 04:43:13;;;;;;;9.20;3.03;;;;;;;12.88;72.00;100371.75;5072034;28;20032;-46
2024/04/02 04:45:38;;;;;;;6.15;3.10;;;;;;;13.05;71.35;100378.69;5073495;28;20406;-48
2024/04/02 04:48:08;;;;;;;7.07;2.97;;;;;;;13.02;71.08;100377.81;5073295;28;20028;-45
2024/04/02 04:50:34;;;;;;;8.20;3.28;;;;;;;12.77;72.21;100377.91;5073666;28;20075;-45
2024/04/02 04:53:00;;;;;;;9.70;3.30;;;;;;;12.50;73.22;100384.97;5072797;28;20035;-47
2024/04/02 04:55:28;;;;;;;8.68;3.20;;;;;;;12.65;73.15;100389.28;5071426;28;20044;-47
2024/04/02 04:57:54;;;;;;;6.40;2.92;;;;;;;12.92;71.69;100389.22;5071836;28;20491;-48
2024/04/02 05:00:19;;;;;;;7.55;3.00;;;;;;;12.81;72.06;100392.72;5071238;28;20062;-45
2024/04/02 05:02:44;;;;;;;9.70;3.20;;;;;;;12.71;72.62;100398.84;5072555;28;20035;-45
2024/04/02 05:05:09;;;;;;;8.82;2.95;;;;;;;12.63;72.66;100404.09;5070029;28;20029;-46
2024/04/02 05:07:35;;;;;;;5.57;2.78;;;;;;;12.40;74.19;100406.78;5072020;28;20174;-46
2024/04/02 05:10:00;;;;;;;9.27;3.10;;;;;;;12.27;74.91;100406.78;5071454;28;20036;-50
2024/04/02 05:12:25;;;;;;;5.32;2.90;;;;;;;12.60;74.11;100407.63;5070798;28;20081;-46
2024/04/02 05:14:51;;;;;;;7.45;3.08;;;;;;;12.76;73.67;100405.81;5071414;28;20040;-48
2024/04/02 05:17:16;;;;;;;8.60;3.33;;;;;;;12.96;72.70;100405.75;5071020;28;20124;-46
2024/04/02 05:19:41;;;;;;;9.38;3.10;;;;;;;12.98;72.54;100412.75;5071779;28;20118;-46
2024/04/02 05:22:08;;;;;;;7.80;3.47;;;;;;;12.73;73.73;100412.81;5070721;28;20406;-45
2024/04/02 05:24:34;;;;;;;7.40;2.90;;;;;;;13.09;72.35;100409.19;5071096;28;20040;-46
2024/04/02 05:27:02;;;;;;;9.23;2.97;;;;;;;12.94;72.33;100413.59;5071468;28;20059;-49
2024/04/02 05:29:27;;;;;;;9.02;3.00;;;;;;;12.94;72.70;100416.22;5071384;28;20092;-46
2024/04/02 05:31:53;;;;;;;10.32;3.35;;;;;;;12.52;73.72;100414.59;5071089;28;20128;-47
2024/04/02 05:34:18;;;;;;;8.98;3.15;;;;;;;12.83;72.91;100417.13;5070712;28;20132;-48
2024/04/02 05:36:43;;;;;;;6.55;2.92;;;;;;;13.16;72.11;100418.81;5071039;28;20036;-47
2024/04/02 05:39:08;;;;;;;10.30;2.90;;;;;;;13.23;71.60;100425.75;5070546;28;20042;-47
2024/04/02 05:41:34;;;;;;;7.50;2.97;;;;;;;13.25;71.44;100423.97;5071052;28;20705;-49
2024/04/02 05:43:59;;;;;;;7.03;3.00;;;;;;;13.25;71.49;100421.34;5070677;28;20150;-46
2024/04/02 05:46:24;;;;;;;9.00;2.85;;;;;;;13.19;71.04;100429.25;5070431;28;20700;-46
2024/04/02 05:48:50;;;;;;;7.25;3.08;;;;;;;13.13;71.70;100434.50;5070990;28;20085;-47
2024/04/02 05:51:15;;;;;;;6.63;2.63;;;;;;;13.16;71.87;100431.88;5070963;28;20086;-45
2024/04/02 05:53:40;;;;;;;12.60;3.05;;;;;;;13.22;72.07;100437.09;5070876;28;20036;-47
2024/04/02 05:56:06;;;;;;;9.45;2.60;;;;;;;13.23;71.88;100439.72;5070266;28;20505;-47
2024/04/02 05:58:32;;;;;;;6.65;2.80;;;;;;;13.37;71.63;100431.78;5070766;28;20043;-48
2024/04/02 06:01:06;;;;;;;7.32;2.50;;;;;;;13.44;71.24;100441.34;5071778;28;20415;-45
2024/04/02 06:03:32;;;;;;;6.78;2.65;;;;;;;13.19;71.95;100445.81;5071663;28;20449;-45
2024/04/02 06:05:58;;;;;;;6.82;2.78;;;;;;;13.60;70.90;100445.59;5072068;28;20062;-44
2024/04/02 06:08:23;;;;;;;9.77;2.60;;;;;;;13.65;70.59;100429.88;5071229;28;20036;-45
2024/04/02 06:10:48;;;;;;;7.00;2.88;;;;;;;13.62;70.88;100438.63;5071879;28;20037;-44
2024/04/02 06:13:13;;;;;;;10.32;3.00;;;;;;;13.79;70.31;100449.84;5071354;28;20036;-47
2024/04/02 06:15:39;;;;;;;7.55;2.42;;;;;;;13.93;69.63;100452.41;5071236;28;20041;-46
2024/04/02 06:18:05;;;;;;;6.03;2.20;;;;;;;13.77;69.39;100450.75;5070403;28;20522;-48
2024/04/02 06:20:30;;;;;;;7.25;2.38;;;;;;;13.80;69.48;100456.84;5070573;28;20669;-47
2024/04/02 06:22:56;;;;;;;8.05;2.65;;;;;;;13.73;70.28;100452.50;5070057;28;20035;-45
2024/04/02 06:25:21;;;;;;;7.40;2.78;;;;;;;13.65;70.62;100456.94;5069989;28;20047;-46
2024/04/02 06:27:46;;;;;;;8.88;2.55;;;;;;;13.97;69.67;100455.84;5071425;28;20040;-44
2024/04/02 06:30:12;;;;;;;5.45;2.30;;;;;;;14.08;69.23;100451.44;5071385;28;20410;-46
2024/04/02 06:32:37;;;;;;;10.90;2.80;;;;;;;13.96;69.31;100452.38;5071882;28;20055;-45
2024/04/02 06:35:03;;;;;;;8.63;2.60;;;;;;;13.93;69.96;100452.41;5071353;28;20040;-46
2024/04/02 06:37:28;;;;;;;7.45;2.78;;;;;;;14.06;69.12;100458.41;5070525;28;20036;-48
2024/04/02 06:39:53;;;;;;;10.40;2.90;;;;;;;13.59;71.19;100453.50;5070770;28;20036;-45
2024/04/02 06:42:19;;;;;;;10.20;2.90;;;;;;;14.03;70.01;100448.81;5070347;28;20089;-46
2024/04/02 06:44:44;;;;;;;11.15;3.15;;;;;;;14.28;68.89;100453.88;5071340;28;20059;-45
2024/04/02 06:47:09;;;;;;;8.20;2.83;;;;;;;13.84;70.06;100455.09;5068412;28;20032;-46
2024/04/02 06:49:35;;;;;;;11.23;2.97;;;;;;;13.92;69.44;100453.28;5069878;28;20032;-47
2024/04/02 06:52:00;;;;;;;9.85;3.05;;;;;;;14.32;68.66;100459.09;5069810;28;20205;-48
2024/04/02 06:54:25;;;;;;;9.05;2.75;;;;;;;14.48;68.39;100452.84;5069013;28;20043;-45
2024/04/02 06:56:51;;;;;;;9.02;2.70;;;;;;;14.34;68.80;100465.16;5069852;28;20041;-49
2024/04/02 06:59:16;;;;;;;9.25;2.90;;;;;;;14.22;68.72;100460.91;5068944;28;20044;-45
2024/04/02 07:01:41;;;;;;;9.50;2.80;;;;;;;14.49;67.96;100459.84;5069276;28;20029;-45
2024/04/02 07:04:07;;;;;;;10.93;3.03;;;;;;;14.06;68.58;100467.16;5069085;28;20743;-45
2024/04/02 07:06:33;;;;;;;8.50;3.13;;;;;;;13.65;70.71;100453.47;5069698;28;20043;-45
2024/04/02 07:08:59;;;;;;;10.27;3.00;;;;;;;14.47;68.67;100464.22;5070125;28;20037;-44
2024/04/02 07:11:25;;;;;;;11.75;3.28;;;;;;;14.83;67.10;100456.88;5069573;28;20109;-47
2024/04/02 07:13:50;;;;;;;8.35;2.85;;;;;;;15.25;66.30;100452.88;5070394;28;20389;-43
2024/04/02 07:16:16;;;;;;;10.18;3.10;;;;;;;15.93;65.03;100461.63;5068781;28;20039;-48
2024/04/02 07:18:42;;;;;;;8.73;3.08;;;;;;;15.77;62.77;100471.50;5069496;28;20040;-47
2024/04/02 07:21:09;;;;;;;11.57;3.75;;;;;;;15.99;61.06;100467.66;5069090;28;20103;-47
2024/04/02 07:23:35;;;;;;;12.02;3.90;;;;;;;15.13;63.31;100479.28;5069761;28;20040;-46
2024/04/02 07:26:00;;;;;;;12.73;4.22;;;;;;;15.09;63.28;100481.09;5069637;28;20036;-46
2024/04/02 07:28:26;;;;;;;10.13;4.05;;;;;;;15.20;63.93;100486.22;5071279;28;20123;-45
2024/04/02 07:30:52;;;;;;;13.65;4.20;;;;;;;15.03;63.75;100473.28;5073128;28;20103;-46
2024/04/02 07:33:17;;;;;;;14.80;4.45;;;;;;;15.00;64.56;100486.47;5072941;28;20037;-45
2024/04/02 07:35:43;;;;;;;10.75;4.20;;;;;;;15.12;64.05;100491.56;5073237;28;20044;-47
2024/04/02 07:38:10;;;;;;;10.95;3.58;;;;;;;15.28;63.31;100492.25;5073554;28;20032;-45
2024/04/02 07:40:35;;;;;;;10.20;4.20;;;;;;;15.40;63.24;100492.09;5073537;28;20036;-46
2024/04/02 07:43:01;;;;;;;15.23;4.07;;;;;;;15.25;63.08;100493.16;5073576;28;20044;-45
2024/04/02 07:45:26;;;;;;;12.38;3.97;;;;;;;14.54;65.48;100494.75;5072395;28;20036;-47
2024/04/02 07:47:51;;;;;;;12.93;3.83;;;;;;;14.96;64.41;100496.09;5073357;28;20036;-48
2024/04/02 07:50:17;;;;;;;10.60;3.80;;;;;;;15.19;63.74;100497.59;5073350;28;20036;-49
2024/04/02 07:52:42;;;;;;;13.13;3.80;;;;;;;14.74;64.92;100497.22;5073522;28;20415;-46
2024/04/02 07:55:07;;;;;;;12.52;3.90;;;;;;;14.92;65.03;100504.03;5072384;28;20044;-48
2024/04/02 07:57:33;;;;;;;11.73;3.67;;;;;;;14.59;64.62;100498.22;5072686;28;20144;-45
2024/04/02 07:59:58;;;;;;;9.82;3.28;;;;;;;15.42;63.48;100499.09;5073494;28;20039;-45
2024/04/02 08:02:23;;;;;;;10.90;3.30;;;;;;;16.07;60.62;100504.34;5073857;28;20047;-47
2024/04/02 08:04:51;;;;;;;11.40;3.13;;;;;;;16.26;59.06;100504.94;5072901;28;20059;-47
2024/04/02 08:07:20;;;;;;;10.85;2.90;;;;;;;16.01;59.68;100504.44;5072591;28;20407;-46
2024/04/02 08:09:46;;;;;;;8.77;2.50;;;;;;;14.86;62.33;100501.47;5072495;28;20039;-48
2024/04/02 08:12:12;;;;;;;10.88;3.00;;;;;;;15.05;62.42;100500.41;5073089;28;20036;-45
2024/04/02 08:14:38;;;;;;;10.45;2.97;;;;;;;14.91;63.03;100510.16;5074344;28;20123;-45
2024/04/02 08:17:03;;;;;;;8.43;2.63;;;;;;;15.25;62.11;100508.03;5074050;28;20637;-44
2024/04/02 08:19:29;;;;;;;10.77;2.53;;;;;;;15.21;60.99;100506.34;5072428;28;20398;-45
2024/04/02 08:21:55;;;;;;;6.95;2.05;;;;;;;15.73;60.61;100511.88;5072924;28;20032;-48
2024/04/02 08:24:21;;;;;;;9.43;2.30;;;;;;;16.12;59.07;100503.41;5072076;28;20521;-45
2024/04/02 08:26:47;;;;;;;8.38;2.10;;;;;;;16.54;57.11;100508.84;5073660;28;20033;-46
2024/04/02 08:29:12;;;;;;;9.50;2.15;;;;;;;16.79;54.73;100510.22;5073778;28;20131;-47
2024/04/02 08:31:37;;;;;;;9.05;1.98;;;;;;;17.06;54.37;100508.84;5072452;28;20041;-48
2024/04/02 08:34:03;;;;;;;9.98;2.10;;;;;;;16.88;54.33;100507.44;5071828;28;20067;-48
2024/04/02 08:36:29;;;;;;;8.30;2.10;;;;;;;16.66;55.17;100518.34;5071785;28;20067;-46
2024/04/02 08:38:54;;;;;;;9.82;2.50;;;;;;;16.56;54.87;100528.13;5072059;28;20085;-48
2024/04/02 08:41:21;;;;;;;6.28;1.95;;;;;;;16.48;55.10;100527.38;5071772;28;20033;-50
2024/04/02 08:43:46;;;;;;;6.90;2.03;;;;;;;16.35;55.47;100531.09;5072130;28;20064;-48
2024/04/02 08:46:12;;;;;;;6.82;2.20;;;;;;;16.29;55.96;100537.31;5071488;28;20074;-46
2024/04/02 08:48:38;;;;;;;8.85;2.30;;;;;;;16.01;57.10;100539.50;5071827;28;20047;-47
2024/04/02 08:51:05;;;;;;;8.88;2.58;;;;;;;15.97;56.80;100527.31;5071638;28;20025;-46
2024/04/02 08:53:33;;;;;;;9.77;2.70;;;;;;;15.36;59.84;100538.56;5071132;28;20062;-46
2024/04/02 08:55:59;;;;;;;9.23;2.80;;;;;;;15.59;59.63;100542.69;5071709;28;20037;-47
2024/04/02 08:58:27;;;;;;;9.10;3.03;;;;;;;14.77;61.90;100543.53;5071450;28;20400;-47
2024/04/02 09:00:55;;;;;;;10.55;3.00;;;;;;;15.11;61.65;100542.34;5071693;28;20121;-46
2024/04/02 09:03:23;;;;;;;12.27;2.78;;;;;;;15.25;59.89;100548.28;5071079;28;20033;-47
2024/04/02 09:05:48;;;;;;;11.10;3.40;;;;;;;14.84;62.26;100551.34;5071614;28;20601;-47
2024/04/02 09:08:13;;;;;;;9.18;2.90;;;;;;;14.55;63.63;100554.22;5071490;28;20124;-46
2024/04/02 09:10:39;;;;;;;10.90;2.70;;;;;;;15.38;61.92;100555.16;5071938;28;20036;-47
2024/04/02 09:13:04;;;;;;;10.40;2.65;;;;;;;15.18;63.78;100559.78;5071642;28;20230;-47
2024/04/02 09:15:29;;;;;;;10.20;2.83;;;;;;;15.34;63.92;100563.09;5070980;28;20115;-45
2024/04/02 09:17:55;;;;;;;9.07;2.67;;;;;;;14.48;69.20;100567.38;5071400;28;20044;-46
2024/04/02 09:20:21;;;;;;;11.10;2.80;;;;;;;14.85;68.01;100566.22;5069417;28;20028;-46
2024/04/02 09:22:50;;;;;;;12.30;3.08;;;;;;;15.18;67.92;100570.28;5071043;28;20054;-49
2024/04/02 09:25:16;;;;;;;8.23;2.55;;;;;;;14.99;67.44;100566.97;5070544;28;20036;-46
2024/04/02 09:27:42;;;;;;;10.25;2.78;;;;;;;15.42;65.78;100567.38;5071215;28;20028;-47
2024/04/02 09:30:07;;;;;;;10.10;2.90;;;;;;;15.46;64.07;100569.97;5070406;28;20028;-45
2024/04/02 09:32:37;;;;;;;11.77;2.65;;;;;;;15.84;63.17;100567.78;5070642;28;20391;-46
2024/04/02 09:35:12;;;;;;;12.23;2.92;;;;;;;15.39;64.18;100571.78;5069588;28;20668;-45
2024/04/02 09:37:40;;;;;;;14.07;3.40;;;;;;;15.44;64.08;100569.97;5070410;28;20040;-47
2024/04/02 09:40:08;;;;;;;11.68;2.90;;;;;;;15.48;64.63;100579.59;5070270;28;20044;-46
2024/04/02 09:42:34;;;;;;;11.43;3.05;;;;;;;15.39;65.85;100580.53;5070488;28;20029;-44
2024/04/02 09:45:00;;;;;;;9.25;3.00;;;;;;;15.62;65.61;100584.69;5070397;28;20123;-45
2024/04/02 09:47:27;;;;;;;9.50;3.40;;;;;;;15.37;67.59;100574.44;5070154;28;20097;-46
2024/04/02 09:49:53;;;;;;;14.00;3.80;;;;;;;15.03;70.19;100578.28;5070585;28;20029;-46
2024/04/02 09:52:19;;;;;;;12.32;3.58;;;;;;;14.88;70.29;100578.44;5070092;28;20033;-45
2024/04/02 09:54:46;;;;;;;10.55;3.25;;;;;;;15.21;68.66;100583.38;5070641;28;20036;-45
2024/04/02 09:57:12;;;;;;;10.52;3.40;;;;;;;15.53;68.43;100574.31;5070068;28;20043;-45
2024/04/02 09:59:38;;;;;;;9.55;3.42;;;;;;;15.82;68.10;100570.44;5070633;28;20419;-44
2024/04/02 10:02:07;;;;;;;11.10;3.40;;;;;;;15.60;67.34;100576.84;5070259;28;20052;-46
2024/04/02 10:04:33;;;;;;;10.20;3.40;;;;;;;15.27;68.71;100585.94;5062352;28;20040;-47
2024/04/02 10:06:58;;;;;;;11.38;3.10;;;;;;;15.13;68.71;100579.94;5070412;28;20497;-45
2024/04/02 10:09:24;;;;;;;14.55;3.20;;;;;;;15.47;67.71;100575.22;5070255;28;25982;-47
2024/04/02 10:11:50;;;;;;;17.35;3.35;;;;;;;15.77;67.60;100574.88;5070309;28;20552;-49
2024/04/02 10:14:17;;;;;;;13.57;3.13;;;;;;;16.01;65.47;100570.19;5069939;28;20036;-46
2024/04/02 10:16:44;;;;;;;9.88;3.08;;;;;;;15.11;67.77;100572.97;5071991;28;20033;-44
2024/04/02 10:19:16;;;;;;;7.75;2.90;;;;;;;16.11;65.01;100582.31;5071199;28;20032;-47
2024/04/02 10:21:43;;;;;;;8.75;3.05;;;;;;;15.93;64.40;100570.28;5071928;28;20045;-44
2024/04/02 10:24:11;;;;;;;10.77;2.90;;;;;;;15.33;66.40;100571.84;5070766;28;20025;-46
2024/04/02 10:26:38;;;;;;;11.48;2.97;;;;;;;15.19;66.05;100572.00;5071360;28;20032;-46
2024/04/02 10:29:04;;;;;;;7.15;2.95;;;;;;;15.60;65.85;100582.09;5070715;28;20073;-45
2024/04/02 10:31:38;;;;;;;9.30;2.90;;;;;;;15.59;64.90;100571.59;5061731;28;20119;-45
2024/04/02 10:34:11;;;;;;;9.38;2.67;;;;;;;15.63;64.80;100571.53;5070581;28;20032;-44
2024/04/02 10:36:37;;;;;;;7.25;2.83;;;;;;;15.59;64.92;100575.09;5071096;28;20479;-45
2024/04/02 10:39:06;;;;;;;8.15;2.70;;;;;;;15.63;65.76;100576.78;5071181;28;20032;-46
2024/04/02 10:41:33;;;;;;;9.13;2.88;;;;;;;16.34;65.68;100582.00;5070525;28;20048;-46
2024/04/02 10:43:58;;;;;;;9.23;2.80;;;;;;;16.51;63.96;100570.31;5070565;28;20041;-45
2024/04/02 10:46:27;;;;;;;10.30;2.80;;;;;;;16.33;63.21;100582.88;5070136;28;20911;-47
2024/04/02 10:48:57;;;;;;;10.05;3.10;;;;;;;16.01;63.37;100572.81;5071303;28;20036;-46
2024/04/02 10:51:24;;;;;;;10.70;3.03;;;;;;;16.06;62.65;100571.84;5070295;28;20036;-47
2024/04/02 10:53:52;;;;;;;10.05;3.00;;;;;;;15.86;63.27;100573.88;5069803;28;20044;-44
2024/04/02 10:56:18;;;;;;;8.50;3.03;;;;;;;15.95;63.27;100572.91;5069951;28;20024;-46
2024/04/02 10:58:44;;;;;;;11.85;2.55;;;;;;;16.21;63.88;100563.75;5069897;28;20035;-48
2024/04/02 11:01:09;;;;;;;9.32;2.80;;;;;;;17.15;60.53;100558.72;5069816;28;20539;-42
2024/04/02 11:03:34;;;;;;;6.97;2.60;;;;;;;17.43;58.23;100562.56;5073666;28;20548;-45
2024/04/02 11:06:01;;;;;;;6.80;2.70;;;;;;;17.27;58.35;100563.75;5073788;28;20059;-46
2024/04/02 11:08:27;;;;;;;5.80;2.55;;;;;;;17.60;57.40;100557.00;5073620;28;20390;-45
2024/04/02 11:10:52;;;;;;;6.85;2.65;;;;;;;17.19;58.75;100562.19;5073584;28;20029;-46
2024/04/02 11:13:25;;;;;;;9.50;2.70;;;;;;;17.56;56.91;100565.84;5073661;28;20115;-46
2024/04/02 11:15:51;;;;;;;6.65;2.42;;;;;;;17.46;56.17;100561.63;5074890;28;20451;-46
2024/04/02 11:18:24;;;;;;;4.75;2.20;;;;;;;17.45;56.21;100568.66;5073467;28;20119;-46